sensor_id;sensor_type;location;lat;lon;timestamp;temperature;humidity
40249;DHT22;25969;49.970;11.062;2022-07-29T04:25:09;19.80;53.30
40249;DHT22;25969;49.970;11.062;2022-07-29T04:35:10;19.80;53.80
40249;DHT22;25969;49.970;11.062;2022-07-29T04:45:10;19.80;53.50
40249;DHT22;25969;49.970;11.062;2022-07-29T04:55:11;19.90;53.50
40249;DHT22;25969;49.970;11.062;2022-07-29T05:05:12;19.90;53.60
40249;DHT22;25969;49.970;11.062;2022-07-29T05:15:13;20.20;52.90
40249;DHT22;25969;49.970;11.062;2022-07-29T05:25:13;20.70;52.60
40249;DHT22;25969;49.970;11.062;2022-07-29T05:35:15;21.00;52.20
40249;DHT22;25969;49.970;11.062;2022-07-29T05:45:16;21.30;52.00
40249;DHT22;25969;49.970;11.062;2022-07-29T05:55:16;21.40;52.20
40249;DHT22;25969;49.970;11.062;2022-07-29T06:05:17;21.40;52.20
40249;DHT22;25969;49.970;11.062;2022-07-29T06:15:18;21.60;52.20
40249;DHT22;25969;49.970;11.062;2022-07-29T06:25:19;22.10;51.70
40249;DHT22;25969;49.970;11.062;2022-07-29T06:35:21;22.60;50.50
40249;DHT22;25969;49.970;11.062;2022-07-29T06:45:22;22.90;49.70
40249;DHT22;25969;49.970;11.062;2022-07-29T06:55:23;23.00;49.50
40249;DHT22;25969;49.970;11.062;2022-07-29T07:05:25;23.80;48.80
40249;DHT22;25969;49.970;11.062;2022-07-29T07:15:26;24.60;48.10
40249;DHT22;25969;49.970;11.062;2022-07-29T07:25:27;24.80;47.90
40249;DHT22;25969;49.970;11.062;2022-07-29T07:35:28;24.90;47.50
40249;DHT22;25969;49.970;11.062;2022-07-29T07:45:29;25.50;47.30
40249;DHT22;25969;49.970;11.062;2022-07-29T07:55:30;26.00;47.00
40249;DHT22;25969;49.970;11.062;2022-07-29T08:05:30;26.70;46.60
40249;DHT22;25969;49.970;11.062;2022-07-29T08:15:32;26.70;47.20
40249;DHT22;25969;49.970;11.062;2022-07-29T08:25:32;27.70;46.30
40249;DHT22;25969;49.970;11.062;2022-07-29T08:35:33;28.60;44.70
40249;DHT22;25969;49.970;11.062;2022-07-29T08:45:52;29.10;44.20
40249;DHT22;25969;49.970;11.062;2022-07-29T08:55:53;30.00;42.30
40249;DHT22;25969;49.970;11.062;2022-07-29T09:05:55;29.20;44.20
40249;DHT22;25969;49.970;11.062;2022-07-29T09:15:55;29.90;44.00
40249;DHT22;25969;49.970;11.062;2022-07-29T09:26:05;30.30;43.70
40249;DHT22;25969;49.970;11.062;2022-07-29T09:36:08;30.20;43.60
40249;DHT22;25969;49.970;11.062;2022-07-29T09:46:11;31.50;42.80
40249;DHT22;25969;49.970;11.062;2022-07-29T09:56:12;32.40;41.00
40249;DHT22;25969;49.970;11.062;2022-07-29T10:06:14;32.30;41.20
40249;DHT22;25969;49.970;11.062;2022-07-29T10:16:16;32.90;41.00
40249;DHT22;25969;49.970;11.062;2022-07-29T10:26:17;32.20;41.00
40249;DHT22;25969;49.970;11.062;2022-07-29T10:46:37;26.00;50.70
40249;DHT22;25969;49.970;11.062;2022-07-29T10:56:38;30.90;43.80
40249;DHT22;25969;49.970;11.062;2022-07-29T11:07:06;29.70;46.20
40249;DHT22;25969;49.970;11.062;2022-07-29T11:17:08;32.70;41.90
40249;DHT22;25969;49.970;11.062;2022-07-29T11:27:14;29.60;46.30
40249;DHT22;25969;49.970;11.062;2022-07-29T11:37:16;29.10;48.60
40249;DHT22;25969;49.970;11.062;2022-07-29T11:47:20;30.80;45.70
40249;DHT22;25969;49.970;11.062;2022-07-29T11:57:21;37.10;37.20
40249;DHT22;25969;49.970;11.062;2022-07-29T12:07:33;41.20;29.50
40249;DHT22;25969;49.970;11.062;2022-07-29T12:17:34;44.40;27.60
40249;DHT22;25969;49.970;11.062;2022-07-29T12:27:36;44.80;26.50
40249;DHT22;25969;49.970;11.062;2022-07-29T12:37:39;43.40;27.40
40249;DHT22;25969;49.970;11.062;2022-07-29T12:47:52;43.80;26.60
40249;DHT22;25969;49.970;11.062;2022-07-29T12:57:53;46.20;25.30
40249;DHT22;25969;49.970;11.062;2022-07-29T13:07:54;42.70;26.40
40249;DHT22;25969;49.970;11.062;2022-07-29T13:17:54;37.40;32.30
40249;DHT22;25969;49.970;11.062;2022-07-29T13:27:56;33.70;40.10
40249;DHT22;25969;49.970;11.062;2022-07-29T13:37:56;34.70;38.60
40249;DHT22;25969;49.970;11.062;2022-07-29T13:47:57;34.50;38.80
40249;DHT22;25969;49.970;11.062;2022-07-29T13:57:58;37.80;34.30
40249;DHT22;25969;49.970;11.062;2022-07-29T14:07:58;38.10;33.30
40249;DHT22;25969;49.970;11.062;2022-07-29T14:17:59;35.60;36.80
40249;DHT22;25969;49.970;11.062;2022-07-29T14:28:01;32.30;41.50
40249;DHT22;25969;49.970;11.062;2022-07-29T14:38:02;31.20;44.20
40249;DHT22;25969;49.970;11.062;2022-07-29T14:48:03;32.20;41.10
40249;DHT22;25969;49.970;11.062;2022-07-29T14:58:03;32.10;43.00
40249;DHT22;25969;49.970;11.062;2022-07-29T15:08:04;30.00;47.40
40249;DHT22;25969;49.970;11.062;2022-07-29T15:18:05;28.20;48.80
40249;DHT22;25969;49.970;11.062;2022-07-29T15:28:06;26.90;51.00
40249;DHT22;25969;49.970;11.062;2022-07-29T15:38:07;25.30;58.80
40249;DHT22;25969;49.970;11.062;2022-07-29T15:48:09;21.20;77.10
40249;DHT22;25969;49.970;11.062;2022-07-29T15:58:09;17.90;99.90
40249;DHT22;25969;49.970;11.062;2022-07-29T16:08:10;17.40;99.90
40249;DHT22;25969;49.970;11.062;2022-07-29T16:18:11;17.40;99.90
40249;DHT22;25969;49.970;11.062;2022-07-29T16:28:13;17.50;99.90
40249;DHT22;25969;49.970;11.062;2022-07-29T16:38:14;17.70;99.90
40249;DHT22;25969;49.970;11.062;2022-07-29T16:48:15;17.50;99.90
40249;DHT22;25969;49.970;11.062;2022-07-29T16:58:16;17.30;99.90
40249;DHT22;25969;49.970;11.062;2022-07-29T17:08:17;17.30;99.90
40249;DHT22;25969;49.970;11.062;2022-07-29T17:18:17;17.30;99.90
40249;DHT22;25969;49.970;11.062;2022-07-29T17:28:18;17.20;99.90
40249;DHT22;25969;49.970;11.062;2022-07-29T17:38:19;17.30;99.90
40249;DHT22;25969;49.970;11.062;2022-07-29T17:48:20;17.40;99.90
40249;DHT22;25969;49.970;11.062;2022-07-29T17:58:21;17.50;99.90
40249;DHT22;25969;49.970;11.062;2022-07-29T18:08:22;17.50;99.90
40249;DHT22;25969;49.970;11.062;2022-07-29T18:18:22;17.60;99.90
40249;DHT22;25969;49.970;11.062;2022-07-29T18:28:23;17.70;99.90
40249;DHT22;25969;49.970;11.062;2022-07-29T18:38:24;17.60;99.90
40249;DHT22;25969;49.970;11.062;2022-07-29T18:48:25;17.50;99.90
40249;DHT22;25969;49.970;11.062;2022-07-29T18:58:25;17.40;99.90
40249;DHT22;25969;49.970;11.062;2022-07-29T19:08:26;17.40;99.90
40249;DHT22;25969;49.970;11.062;2022-07-29T19:18:27;17.30;99.90
40249;DHT22;25969;49.970;11.062;2022-07-29T19:28:28;17.40;99.90
40249;DHT22;25969;49.970;11.062;2022-07-29T19:38:28;17.40;99.90
40249;DHT22;25969;49.970;11.062;2022-07-29T19:48:29;17.50;99.90
40249;DHT22;25969;49.970;11.062;2022-07-29T19:58:30;17.50;99.90
40249;DHT22;25969;49.970;11.062;2022-07-29T20:08:31;17.40;99.90
40249;DHT22;25969;49.970;11.062;2022-07-29T20:18:32;17.40;99.90
40249;DHT22;25969;49.970;11.062;2022-07-29T20:28:33;17.50;99.90
40249;DHT22;25969;49.970;11.062;2022-07-29T20:38:33;17.40;99.90
40249;DHT22;25969;49.970;11.062;2022-07-29T20:48:34;17.50;99.90
40249;DHT22;25969;49.970;11.062;2022-07-29T20:58:35;17.40;99.90
40249;DHT22;25969;49.970;11.062;2022-07-29T21:08:36;17.30;99.90
40249;DHT22;25969;49.970;11.062;2022-07-29T21:18:40;17.20;99.90
40249;DHT22;25969;49.970;11.062;2022-07-29T21:28:43;17.10;99.90
40249;DHT22;25969;49.970;11.062;2022-07-29T21:38:44;17.00;99.90
40249;DHT22;25969;49.970;11.062;2022-07-29T21:48:44;16.90;99.90
40249;DHT22;25969;49.970;11.062;2022-07-29T21:58:45;16.90;99.90
